ADDS METAR Data INFO
IDs: Format: Raw Decoded Include TAF

Data at: 0754 UTC 17 Oct 2017

KFVX 170735Z AUTO 36004KT 10SM CLR 08/06 A3027 RMK AO2 T00760059
KFVX 170715Z AUTO 34003KT 10SM CLR 08/06 A3027 RMK AO2 T00750061
KFVX 170655Z AUTO 00000KT 10SM CLR 07/06 A3027 RMK AO2 T00660060
KFVX 170635Z AUTO 00000KT 10SM CLR 07/06 A3027 RMK AO2 T00740062
KFVX 170615Z AUTO 01003KT 10SM CLR 07/06 A3027 RMK AO2 T00710063
KFVX 170555Z AUTO 00000KT 10SM CLR 09/06 A3026 RMK AO2 T00940059 10136 20080
KFVX 170535Z AUTO 00000KT 10SM CLR 09/06 A3026 RMK AO2 T00910060
KFVX 170515Z AUTO 34005KT 10SM CLR 10/06 A3026 RMK AO2 T00950061
KFVX 170455Z AUTO 34003KT 10SM CLR 10/06 A3026 RMK AO2 T00950061 402250080
KFVX 170435Z AUTO 00000KT 10SM CLR 09/06 A3026 RMK AO2 T00940062
KFVX 170415Z AUTO 00000KT 10SM CLR 09/06 A3026 RMK AO2 T00880063
KFVX 170355Z AUTO 00000KT 10SM CLR 09/07 A3026 RMK AO2 T00900065
KFVX 170335Z AUTO 00000KT 10SM CLR 08/07 A3026 RMK AO2 T00840066
KFVX 170315Z AUTO 00000KT 10SM CLR 11/06 A3026 RMK AO2 T01090063
KFVX 170255Z AUTO 00000KT 10SM CLR 10/07 A3025 RMK AO2 T00980066
KFVX 170235Z AUTO 00000KT 10SM CLR 09/07 A3025 RMK AO2 T00940069
KFVX 170215Z AUTO 00000KT 10SM CLR 12/07 A3024 RMK AO2 T01160066
KFVX 170155Z AUTO 00000KT 10SM CLR 12/07 A3023 RMK AO2 T01160068
KFVX 170135Z AUTO 00000KT 10SM CLR 12/07 A3022 RMK AO2 T01200070
KFVX 170115Z AUTO 00000KT 10SM CLR 12/07 A3022 RMK AO2 T01220071
KFVX 170055Z AUTO 32003KT 10SM CLR 12/07 A3021 RMK AO2 T01210072
KFVX 170035Z AUTO 00000KT 10SM CLR 12/07 A3020 RMK AO2 T01240071
KFVX 170015Z AUTO 00000KT 10SM CLR 13/07 A3019 RMK AO2 T01320070
KFVX 162355Z AUTO 00000KT 10SM CLR 14/07 A3018 RMK AO2 T01360069 10201 20136
KFVX 162335Z AUTO 30003KT 10SM CLR 14/07 A3017 RMK AO2 T01360070
KFVX 162315Z AUTO 00000KT 10SM CLR 14/07 A3016 RMK AO2 T01430070
KFVX 162255Z AUTO 00000KT 10SM CLR 15/07 A3015 RMK AO2 T01500067
KFVX 162235Z AUTO 02004KT 10SM CLR 16/06 A3014 RMK AO2 T01600061
KFVX 162215Z AUTO 36003KT 10SM CLR 17/06 A3013 RMK AO2 T01670058
KFVX 162155Z AUTO 01006KT 10SM CLR 18/06 A3013 RMK AO2 T01760056
KFVX 162135Z AUTO 02008KT 10SM CLR 18/06 A3012 RMK AO2 T01810057
KFVX 162115Z AUTO 02006KT 10SM CLR 19/07 A3011 RMK AO2 T01850065
KFVX 162055Z AUTO 01009G15KT 330V030 10SM SCT060 18/07 A3011 RMK AO2 T01810071
KFVX 162035Z AUTO 01007KT 10SM BKN060 19/07 A3011 RMK AO2 T01860065
KFVX 162015Z AUTO 01005KT 10SM OVC060 19/07 A3011 RMK AO2 T01850073
KFVX 161955Z AUTO 02007KT 10SM BKN060 19/08 A3010 RMK AO2 T01860077
KFVX 161935Z AUTO 02007G14KT 340V050 10SM BKN060 19/08 A3010 RMK AO2 T01940084
KFVX 161915Z AUTO 33007KT 10SM BKN060 19/08 A3009 RMK AO2 T01890075
KFVX 161855Z AUTO 01005KT 10SM BKN060 19/08 A3009 RMK AO2 T01900079
KFVX 161835Z AUTO 35004KT 10SM BKN050 19/08 A3009 RMK AO2 T01940083
KFVX 161815Z AUTO 36007G14KT 330V040 10SM BKN050 20/09 A3009 RMK AO2 T01970085
KFVX 161755Z AUTO 34006KT 10SM BKN050 20/09 A3009 RMK AO2 60001 T02010090 10201 20163
KFVX 161735Z AUTO 35007G14KT 310V040 10SM SCT045 OVC050 20/09 A3009 RMK AO2 T01960094
KFVX 161715Z AUTO 03010G14KT 10SM SCT045 BKN050 19/10 A3009 RMK AO2 T01940100
KFVX 161655Z AUTO 33005KT 10SM SCT043 BKN050 19/10 A3009 RMK AO2 T01860097
KFVX 161635Z AUTO 01007G16KT 320V040 10SM OVC050 19/10 A3010 RMK AO2 T01920103
KFVX 161615Z AUTO 36006KT 10SM OVC050 19/11 A3010 RMK AO2 T01860109
KFVX 161555Z AUTO 01003KT 10SM BKN035 OVC048 18/12 A3009 RMK AO2 LTG DSNT SE T01820118
KFVX 161535Z AUTO 02007KT 350V050 10SM SCT035 BKN048 18/13 A3009 RMK AO2 T01810133
KFVX 161515Z AUTO 35003KT 10SM SCT048 18/14 A3009 RMK AO2 T01750143
KFVX 161455Z AUTO 00000KT 10SM BKN048 17/14 A3009 RMK AO2 60001 T01670144
KFVX 161435Z AUTO 36003KT 10SM SCT043 OVC048 16/15 A3009 RMK AO2 T01630145
KFVX 161415Z AUTO 00000KT 10SM -RA BKN041 OVC046 17/17 A3009 RMK AO2 T01670167
KFVX 161355Z AUTO 30005KT 10SM OVC039 17/17 A3008 RMK AO2 T01720172
KFVX 161335Z AUTO 34004KT 10SM OVC037 17/17 A3006 RMK AO2 T01700170
KFVX 161315Z AUTO 36003KT 10SM OVC037 17/17 A3006 RMK AO2 T01660166
KFVX 161255Z AUTO 00000KT 10SM OVC035 17/17 A3006 RMK AO2 P0001 T01660166
KFVX 161235Z AUTO 04006KT 10SM OVC035 17/17 A3003 RMK AO2 P0001 T01650165
KFVX 161215Z AUTO 00000KT 10SM -RA SCT019 OVC028 17/17 A3004 RMK AO2 T01650165
KFVX 161155Z AUTO 03005KT 10SM -RA SCT019 OVC024 17/17 A3002 RMK AO2 P0007 60030 70030 T01680168 10222 20168
KFVX 161135Z AUTO 01007KT 10SM -RA SCT024 BKN031 OVC095 17/17 A3002 RMK AO2 P0006 T01710171
KFVX 161115Z AUTO 01006KT 7SM RA SCT009 BKN036 OVC095 18/18 A3001 RMK AO2 P0003 T01750175
KFVX 161055Z AUTO 01004KT 10SM RA SCT012 BKN045 OVC070 18/18 A2999 RMK AO2 P0010 T01770177
KFVX 161035Z AUTO 00000KT 4SM RA SCT032 SCT041 OVC070 18/18 A2998 RMK AO2 P0007 T01770177
KFVX 161015Z AUTO 00000KT 10SM -RA SCT029 BKN050 OVC075 18/18 A2999 RMK AO2 P0002 T01790179
KFVX 160955Z AUTO 00000KT 10SM RA SCT017 BKN026 OVC036 18/18 A2998 RMK AO2 P0013 T01810181
KFVX 160935Z AUTO 34004KT 7SM RA SCT006 BKN019 OVC060 19/19 A2998 RMK AO2 P0011 T01870187
KFVX 160915Z AUTO 35003KT 4SM RA SCT008 BKN026 OVC060 20/20 A2996 RMK AO2 P0004 T01970197
KFVX 160855Z AUTO 36003KT 10SM RA SCT014 BKN050 OVC060 21/21 A2995 RMK AO2 T02050205
KFVX 160835Z AUTO 35005KT 10SM -DZ BKN014 BKN036 OVC046 21/21 A2993 RMK AO2 T02130210
KFVX 160815Z AUTO 30003KT 10SM SCT027 BKN037 OVC060 22/21 A2993 RMK AO2 T02210209
KFVX 160755Z AUTO 00000KT 10SM SCT027 BKN043 OVC120 22/21 A2992 RMK AO2 T02210213
KFVX 160735Z AUTO 23003KT 10SM SCT027 BKN036 BKN050 22/22 A2992 RMK AO2 T02200215
KFVX 160715Z AUTO 00000KT 10SM SCT034 BKN060 22/22 A2992 RMK AO2 T02150215
KFVX 160655Z AUTO 00000KT 10SM SCT060 BKN110 21/21 A2992 RMK AO2 T02110211
KFVX 160635Z AUTO 00000KT 10SM OVC110 21/21 A2992 RMK AO2 T02100209
KFVX 160615Z AUTO 21003KT 10SM BKN110 22/21 A2992 RMK AO2 T02160208
KFVX 160555Z AUTO 22004KT 10SM CLR 22/21 A2992 RMK AO2 T02200206 10230 20217
KFVX 160535Z AUTO 21005KT 10SM SCT120 22/21 A2992 RMK AO2 T02220205
KFVX 160515Z AUTO 21006KT 10SM SCT100 OVC120 23/21 A2993 RMK AO2 T02250205
KFVX 160455Z AUTO 22006KT 10SM OVC100 23/21 A2993 RMK AO2 T02250205 402730186
KFVX 160435Z AUTO 22006KT 10SM OVC100 22/21 A2993 RMK AO2 T02230205
KFVX 160415Z AUTO 21007KT 10SM OVC100 22/21 A2993 RMK AO2 T02220205
KFVX 160355Z AUTO 22005KT 10SM BKN100 22/21 A2994 RMK AO2 T02190205
KFVX 160335Z AUTO 21006KT 10SM CLR 22/20 A2993 RMK AO2 T02200202
KFVX 160315Z AUTO 20008KT 10SM CLR 22/20 A2993 RMK AO2 T02210201
KFVX 160255Z AUTO 22006KT 10SM CLR 22/20 A2993 RMK AO2 T02210201
KFVX 160235Z AUTO 21006KT 10SM CLR 22/20 A2993 RMK AO2 T02190200
KFVX 160215Z AUTO 21005KT 10SM CLR 22/20 A2994 RMK AO2 T02200199
KFVX 160155Z AUTO 22005KT 10SM CLR 22/20 A2994 RMK AO2 T02220197
KFVX 160135Z AUTO 21007KT 10SM CLR 22/20 A2993 RMK AO2 T02210196
KFVX 160115Z AUTO 21005KT 10SM CLR 22/20 A2994 RMK AO2 T02200195
KFVX 160050Z AUTO 21004KT 10SM CLR 22/19 A2994 RMK AO2 T02180194
KFVX 160035Z AUTO 22004KT 10SM CLR 22/19 A2994 RMK AO2 T02210194
KFVX 160015Z AUTO 21005KT 10SM CLR 23/20 A2994 RMK AO2 T02280195
KFVX 152355Z AUTO 21004KT 10SM CLR 23/19 A2994 RMK AO2 T02300193 10273 20230
KFVX 152335Z AUTO 21004KT 10SM CLR 24/19 A2994 RMK AO2 T02350193
KFVX 152315Z AUTO 21005KT 10SM CLR 24/19 A2994 RMK AO2 T02390192
KFVX 152255Z AUTO 21005KT 10SM CLR 24/19 A2994 RMK AO2 T02410191
KFVX 152235Z AUTO 21006KT 10SM CLR 25/19 A2994 RMK AO2 T02500192
KFVX 152215Z AUTO 21006KT 10SM CLR 25/19 A2994 RMK AO2 T02540193
KFVX 152155Z AUTO 20007KT 10SM CLR 26/20 A2994 RMK AO2 T02610195
KFVX 152135Z AUTO 20007KT 10SM CLR 27/20 A2995 RMK AO2 T02670196
KFVX 152115Z AUTO 21008KT 10SM CLR 27/20 A2996 RMK AO2 T02700199
KFVX 152055Z AUTO 20010KT 10SM CLR 27/20 A2996 RMK AO2 T02730200
KFVX 152035Z AUTO 21009KT 10SM CLR 27/20 A2996 RMK AO2 T02720199
KFVX 152015Z AUTO 19012G15KT 10SM CLR 27/20 A2997 RMK AO2 T02710195
KFVX 151955Z AUTO 23009KT 10SM CLR 27/19 A2998 RMK AO2 T02700194